Aviation Digital Data Service (ADDS)

Output produced by METARs form (0747 UTC 01 August 2015)
found at http://www.aviationweather.gov/adds/metars/
 
KDOV 010658Z AUTO 21007KT 10SM CLR 22/20 A2984 RMK AO2 SLP108 T02230198 VISNO RWY19 CHINO RWY19 $
TAF KDOV 0100/0206 VRB06KT 9999 SKC QNH2982INS 
     BECMG 0106/0107 VRB06KT 9999 BKN070 QNH2980INS 
     BECMG 0112/0113 VRB06KT 9999 SKC QNH2978INS 
     BECMG 0115/0116 25012G18KT 9999 BKN055 QNH2977INS 
     BECMG 0200/0201 VRB06KT 9999 SCT060 QNH2979INS TX30/0120Z TN21/0108Z